Heron Lake, Minnesota
Current Conditions -  °F | °C
As of 6:33 AM on Monday 24 Nov 2014 (Local Time) from KMWM Reporting Station
Light Snow Light Snow  
Wind Chill:   Ceiling: 1700
Heat Index: 18°   Visibility: 10mi
Dew Point: 12°   Wind: 23mph
Humidity: 79%   Direction: 300°WNW
Pressure: 29.47"   Gusts: 33mph
Location:  43.79°N, 95.32°W
Report Text: KMWM 241233Z AUTO 30020G29KT 10SM -SN OVC017 M08/M11 A2947 RMK AO2
Loading
Personal Weather Stations






























Interactive Weather Map New forecast layout! Learn more

10-Day Weather Forecast

Advertisements
Track Severe Weather on mobile